Tiempo atmosférico en la estación meteorológica de San José del Valle, Cádiz (105 m.)



Fecha
DESCASC
Temp. máxima en grados centígrados (hora)
DESCASC
Temp. mínima en grados centígrados (hora)
DESCASC
Temp. media en grados centígrados
DESCASC
Racha de viento máxima en m/sg (hora)
DESCASC
Velocidad máxima media en intervalos de 10 minutos(hora)
DESCASC
Precipitaciones diarias en mm
DESCASC
Precipitaciones de 00:00 a 06:00 en mm
DESCASC
Precipitaciones de 06:00 a 12:00 en mm
DESCASC
Precipitaciones de 12:00 a 18:00 en mm
DESCASC
Precipitaciones de 18:00 a 24:00 en mm
DESCASC
11-08-2020 31.5 (16:40) 21.2 (23:59) 26.4 12.78 (17:20) 4.17 (17:00) 0 0 0 0 0
10-08-2020 33.3 (16:10) 22.9 (04:50) 28.1 6.94 (18:40) 3.33 (05:30) 0 0 0 0 0
09-08-2020 38.2 (15:30) 22 (07:30) 30.1 7.78 (15:50) 4.44 (15:50) 0 0 0 0 0
08-08-2020 39.4 (17:00) 23 (04:30) 31.2 8.06 (15:00) 4.44 (15:00) 0 0 0 0 0
07-08-2020 37.1 (15:50) 23.7 (00:00) 30.4 14.72 (02:20) 7.78 (01:40) 0 0 0 0 0
06-08-2020 33.4 (15:40) 27.2 (00:00) 30.3 15.83 (19:20) 10.56 (10:40) 0 0 0 0 0
05-08-2020 35.2 (17:30) 24.6 (00:00) 29.9 11.67 (10:00) 8.89 (17:10) 0 0 0 0 0
04-08-2020 35.2 (15:10) 22.1 (07:00) 28.7 8.06 (05:40) 4.72 (05:20) 0 0 0 0 0
03-08-2020 32.5 (15:20) 20.9 (06:30) 26.7 8.33 (15:30) 4.17 (05:20) 0 0 0 0 0
02-08-2020 38.5 (15:50) 22.8 (00:00) 30.6 8.06 (18:50) 3.89 (18:40) 0 0 0 0 0
01-08-2020 41.6 (18:00) 24.1 (00:00) 32.8 7.5 (19:20) 3.61 (19:30) 0 0 0 0 0
31-07-2020 37.7 (17:40) 22 (07:30) 29.9 6.67 (15:50) 4.17 (16:00) 0 0 0 0 0
30-07-2020 37.5 (15:30) 23 (00:00) 30.3 7.78 (02:30) 4.17 (19:50) 0 0 0 0 0
29-07-2020 36.2 (15:00) 21.5 (00:00) 28.9 7.22 (16:20) 3.33 (16:20) 0 0 0 0 0
28-07-2020 35.7 (15:20) 21.4 (00:00) 28.6 6.94 (17:40) 3.61 (17:40) 0 0 0 0 0
27-07-2020 37.1 (14:30) 25.2 (00:00) 31.1 11.39 (14:40) 4.44 (03:10) 0 0 0 0 0
26-07-2020 41.3 (15:50) 22.7 (00:00) 32 10.83 (18:20) 6.67 (17:50) 0 0 0 0 0
25-07-2020 38.9 (17:30) 22.2 (00:00) 30.6 7.5 (18:00) 3.06 (19:00) 0 0 0 0 0
24-07-2020 37.2 (14:10) 22.2 (00:00) 29.7 7.78 (16:10) 3.61 (18:00) 0 0 0 0 0
23-07-2020 37.1 (15:30) 21.7 (00:00) 29.4 8.61 (18:10) 3.89 (16:30) 0 0 0 0 0
22-07-2020 33.2 (16:40) 22.1 (00:00) 27.7 7.78 (20:10) 3.61 (20:10) 0 0 0 0 0
21-07-2020 34.2 (17:10) 22.7 (00:00) 28.5 18.33 (01:00) 13.33 (00:40) 0.2 0 0.2 0 0
20-07-2020 34.5 (12:50) 23.3 (00:00) 28.9 17.5 (23:50) 11.67 (23:50) 0 0 0 0 0
19-07-2020 37.9 (17:40) 21.3 (00:00) 29.6 6.39 (18:40) 3.89 (07:50) 0 0 0 0 0
18-07-2020 34.6 (19:50) 22.3 (00:00) 28.4 7.22 (21:50) 3.89 (15:20) 0 0 0 0 0
17-07-2020 32.6 (17:00) 26.1 (00:00) 29.3 8.33 (00:40) 3.33 (00:50) 0 0 0 0 0
16-07-2020 32 (17:00) 26.4 (00:00) 29.2 13.89 (10:30) 8.89 (10:50) 0 0 0 0 0
15-07-2020 31.6 (16:40) 25.4 (00:00) 28.5 12.78 (17:20) 8.89 (18:00) 0 0 0 0 0

Gráficas

Temp. máximas Temp. mínimas Temp. medias Precipitaciones Rachas de viento máximas Velocidades máximas media en intervalos de 10 minutos

Datos horarios

Fecha y hora oficial Temperatura (ºC) Velocidad del viento (km/h) Dirección del viento Racha (km/h) Dirección de racha Precipitación (mm) Presión (hPa) Tendencia (hPa) Humedad (%)
2020-08-13 23:00:00 21 5 Oeste 17 Oeste 0 -- -- 79
2020-08-13 22:00:00 22.3 10 Oeste 20 Sudoeste 0 -- -- 71
2020-08-13 21:00:00 24.5 4 Sudoeste 18 Oeste 0 -- -- 60
2020-08-13 20:00:00 26.8 8 Oeste 20 Sudoeste 0 -- -- 51
2020-08-13 19:00:00 29.1 7 Oeste 22 Sudoeste 0 -- -- 45
2020-08-13 18:00:00 30.1 9 Oeste 21 Sudoeste 0 -- -- 43
2020-08-13 17:00:00 30.2 7 Oeste 21 Sudoeste 0 -- -- 42
2020-08-13 16:00:00 30.4 6 Oeste 21 Sudoeste 0 -- -- 43
2020-08-13 15:00:00 29.7 8 Sur 18 Nordeste 0 -- -- 45
2020-08-13 14:00:00 28.9 6 Nordeste 17 Sudoeste 0 -- -- 46
2020-08-13 13:00:00 28.2 6 Sudoeste 18 Sur 0 -- -- 49
2020-08-13 12:00:00 26.6 7 Sur 19 Sur 0 -- -- 55
2020-08-13 11:00:00 25 8 Sur 22 Sudoeste 0 -- -- 63
2020-08-13 10:00:00 22.8 7 Sur 13 Sur 0 -- -- 74
2020-08-13 09:00:00 20 3 Este 8 Este 0 -- -- 88
2020-08-13 08:00:00 18.6 0 Calma 5 Este 0 -- -- 89
2020-08-13 07:00:00 18.9 0 Calma 4 Este 0 -- -- 86
2020-08-13 06:00:00 19.7 0 Calma 6 Este 0 -- -- 81
2020-08-13 05:00:00 20.3 2 Nordeste 7 Este 0 -- -- 81
2020-08-13 04:00:00 19.4 0 Calma 4 Sudoeste 0 -- -- 86
2020-08-13 03:00:00 19.5 0 Calma 5 Sur 0 -- -- 87
2020-08-13 02:00:00 19.9 0 Calma 10 Sur 0 -- -- 82
2020-08-13 01:00:00 20 3 Sur 8 Sur 0 -- -- 83
2020-08-13 00:00:00 20.2 4 Sudoeste 8 Sudoeste 0 -- -- 82
2020-08-12 23:00:00 20.7 4 Sudoeste 13 Oeste 0 -- -- 75
2020-08-12 22:00:00 21.9 4 Sudoeste 15 Sudoeste 0 -- -- 66
2020-08-12 21:00:00 23.3 9 Sudoeste 19 Sudoeste 0 -- -- 58
2020-08-12 20:00:00 25 8 Sudoeste 23 Sudoeste 0 -- -- 51
2020-08-12 19:00:00 26.7 9 Sudoeste 23 Sudoeste 0 -- -- 48
2020-08-12 18:00:00 28.2 8 Oeste 24 Oeste 0 -- -- 45
2020-08-12 17:00:00 28.6 8 Sudoeste 30 Oeste 0 -- -- 44
2020-08-12 16:00:00 28.4 4 Sur 22 Oeste 0 -- -- 42
2020-08-12 15:00:00 28 9 Sudoeste 23 Oeste 0 -- -- 44
2020-08-12 14:00:00 26.9 7 Sudoeste 18 Sur 0 -- -- 47
2020-08-12 13:00:00 25.5 8 Oeste 21 Sudoeste 0 -- -- 51
2020-08-12 12:00:00 25.4 10 Sudoeste 22 Sudoeste 0 -- -- 53
2020-08-12 11:00:00 23.3 10 Sur 16 Sur 0 -- -- 62
2020-08-12 10:00:00 21.9 5 Oeste 19 Sur 0 -- -- 78
2020-08-12 09:00:00 21.4 6 Sur 18 Sur 0 -- -- 82
2020-08-12 08:00:00 20.3 6 Sur 14 Sur 0 -- -- 84
2020-08-12 07:00:00 20.2 6 Sur 15 Sudoeste 0 -- -- 84
2020-08-12 06:00:00 20.7 10 Sur 23 Sur 0 -- -- 82
2020-08-12 05:00:00 20.5 11 Sur 23 Sur 0 -- -- 83
2020-08-12 04:00:00 20.2 8 Sur 18 Sudoeste 0 -- -- 85
2020-08-12 03:00:00 20.5 11 Sudoeste 23 Sur 0 -- -- 83
2020-08-12 02:00:00 20.7 10 Sur 24 Sur 0 -- -- 82
2020-08-12 01:00:00 20.9 12 Sur 24 Sur 0 -- -- 82
2020-08-12 00:00:00 21.2 9 Sudoeste 21 Sudoeste 0 -- -- 81
2020-08-11 23:00:00 21.8 6 Sudoeste 17 Sur 0 -- -- 77
2020-08-11 22:00:00 22.9 8 Oeste 21 Oeste 0 -- -- 73
2020-08-11 21:00:00 25 11 Oeste 23 Sudoeste 0 -- -- 64
2020-08-11 20:00:00 27.8 10 Sudoeste 26 Oeste 0 -- -- 49
2020-08-11 19:00:00 30.1 10 Sudoeste 30 Sudoeste 0 -- -- 42
2020-08-11 18:00:00 31.2 12 Sudoeste 46 Sudoeste 0 -- -- 44
2020-08-11 17:00:00 31.1 15 Sur 34 Sur 0 -- -- 54
2020-08-11 16:00:00 30.9 15 Sudoeste 30 Sur 0 -- -- 56
2020-08-11 15:00:00 29.6 11 Sudoeste 30 Sudoeste 0 -- -- 61
2020-08-11 14:00:00 30.1 12 Sudoeste 34 Sur 0 -- -- 62
2020-08-11 13:00:00 29.5 12 Oeste 30 Oeste 0 -- -- 63
2020-08-11 12:00:00 29.3 9 Sudoeste 26 Oeste 0 -- -- 66
2020-08-11 11:00:00 27.1 8 Sudoeste 19 Sudoeste 0 -- -- 72
2020-08-11 10:00:00 25.3 2 Nordeste 7 Nordeste 0 -- -- 80
2020-08-11 09:00:00 23.4 2 Sur 5 Sur 0 -- -- 85
2020-08-11 08:00:00 22.9 0 Calma 10 Sudeste 0 -- -- 86
2020-08-11 07:00:00 22.9 0 Calma 10 Sudeste 0 -- -- 88
2020-08-11 06:00:00 22.7 0 Calma 5 Sudeste 0 -- -- 89
2020-08-11 05:00:00 23.1 2 Sudoeste 11 Oeste 0 -- -- 87
2020-08-11 04:00:00 23.3 5 Oeste 15 Oeste 0 -- -- 85
2020-08-11 03:00:00 23.5 2 Este 19 Oeste 0 -- -- 83
2020-08-11 02:00:00 23.7 8 Noroeste 15 Oeste 0 -- -- 80
2020-08-11 01:00:00 24.5 0 Calma 13 Noroeste 0 -- -- 73
2020-08-11 00:00:00 25.5 2 Oeste 12 Sur 0 -- -- 66
2020-08-10 23:00:00 25.9 6 Sur 20 Sur 0 -- -- 68
2020-08-10 22:00:00 26 5 Sudoeste 17 Oeste 0 -- -- 65
2020-08-10 21:00:00 27.4 3 Oeste 19 Sudoeste 0 -- -- 60
2020-08-10 20:00:00 29 9 Sudoeste 23 Sur 0 -- -- 58
2020-08-10 19:00:00 31 10 Sudoeste 25 Sudoeste 0 -- -- 52
2020-08-10 18:00:00 32.2 6 Noroeste 22 Sudoeste 0 -- -- 49
2020-08-10 17:00:00 32.3 6 Noroeste 23 Norte 0 -- -- 49
2020-08-10 16:00:00 33 6 Nordeste 18 Oeste 0 -- -- 47
2020-08-10 15:00:00 31.5 6 Este 12 Sudeste 0 -- -- 46
2020-08-10 14:00:00 29.4 7 Sudeste 10 Sudeste 0 -- -- 57
2020-08-10 13:00:00 27.8 5 Noroeste 16 Noroeste 0 -- -- 61
2020-08-10 12:00:00 24.7 8 Noroeste 15 Noroeste 0 -- -- 70
2020-08-10 11:00:00 23 8 Noroeste 22 Oeste 0 -- -- 83
2020-08-10 10:00:00 23.7 3 Noroeste 12 Noroeste 0 -- -- 78
2020-08-10 09:00:00 23.8 0 Calma 9 Noroeste 0 -- -- 73
2020-08-10 08:00:00 23.3 0 Calma 10 Noroeste 0 -- -- 73
2020-08-10 07:00:00 23.7 2 Noroeste 17 Sur 0 -- -- 72
2020-08-10 06:00:00 23.9 10 Sur 19 Sur 0 -- -- 73
2020-08-10 05:00:00 23.1 6 Sudoeste 16 Sudoeste 0 -- -- 72
2020-08-10 04:00:00 23.1 0 Calma 11 Oeste 0 -- -- 86
2020-08-10 03:00:00 23.6 7 Noroeste 13 Oeste 0 -- -- 83
2020-08-10 02:00:00 23.7 2 Noroeste 6 Nordeste 0 -- -- 85
2020-08-10 01:00:00 23.8 2 Nordeste 6 Sudoeste 0 -- -- 84
2020-08-10 00:00:00 24.2 4 Sudoeste 21 Oeste 0 -- -- 80
2020-08-09 23:00:00 24.9 8 Oeste 18 Oeste 0 -- -- 76
2020-08-09 22:00:00 26.2 8 Oeste 14 Oeste 0 -- -- 67
2020-08-09 21:00:00 27.6 7 Oeste 23 Oeste 0 -- -- 61
2020-08-09 20:00:00 30.2 9 Sudoeste 21 Oeste 0 -- -- 53
2020-08-09 19:00:00 32.7 9 Oeste 22 Sudoeste 0 -- -- 46
2020-08-09 18:00:00 34.5 8 Oeste 26 Oeste 0 -- -- 41
2020-08-09 17:00:00 34.9 11 Oeste 27 Sudoeste 0 -- -- 39
2020-08-09 16:00:00 35.6 14 Oeste 28 Sudoeste 0 -- -- 36
2020-08-09 15:00:00 36.4 4 Norte 15 Norte 0 -- -- 25
2020-08-09 14:00:00 34.3 3 Sur 13 Noroeste 0 -- -- 27
2020-08-09 13:00:00 31.6 7 Noroeste 15 Noroeste 0 -- -- 32
2020-08-09 12:00:00 29.1 6 Norte 15 Norte 0 -- -- 42
2020-08-09 11:00:00 27.1 9 Norte 17 Noroeste 0 -- -- 47
2020-08-09 10:00:00 25.3 5 Norte 10 Norte 0 -- -- 53
2020-08-09 09:00:00 23.3 0 Calma 4 Este 0 -- -- 62
2020-08-09 08:00:00 22 0 Calma 4 Nordeste 0 -- -- 68
2020-08-09 07:00:00 22.3 0 Calma 12 Noroeste 0 -- -- 66
2020-08-09 06:00:00 22.5 5 Noroeste 11 Oeste 0 -- -- 66
2020-08-09 05:00:00 22.7 0 Calma 6 Sudeste 0 -- -- 70
2020-08-09 04:00:00 23.1 3 Sur 7 Sudoeste 0 -- -- 51
2020-08-09 03:00:00 23.9 2 Oeste 6 Noroeste 0 -- -- 65
2020-08-09 02:00:00 23.7 0 Calma 4 Sudoeste 0 -- -- 64
2020-08-09 01:00:00 25 4 Sudoeste 18 Noroeste 0 -- -- 58
2020-08-09 00:00:00 25.9 8 Noroeste 14 Oeste 0 -- -- 56
2020-08-08 23:00:00 26.6 8 Noroeste 16 Noroeste 0 -- -- 56
2020-08-08 22:00:00 27.8 12 Noroeste 22 Noroeste 0 -- -- 51
2020-08-08 21:00:00 29.7 12 Noroeste 21 Noroeste 0 -- -- 44
2020-08-08 20:00:00 33.1 7 Noroeste 19 Oeste 0 -- -- 31
2020-08-08 19:00:00 36 9 Oeste 21 Sudoeste 0 -- -- 26
2020-08-08 18:00:00 36.1 4 Este 17 Sudeste 0 -- -- 22
2020-08-08 17:00:00 39.4 5 Este 20 Sudeste 0 -- -- 14
2020-08-08 16:00:00 38.3 14 Sur 27 Sur 0 -- -- 11
2020-08-08 15:00:00 37.8 16 Sur 29 Sudeste 0 -- -- 19
2020-08-08 14:00:00 34.9 5 Este 8 Sur 0 -- -- 22
2020-08-08 13:00:00 32.3 4 Este 8 Sudeste 0 -- -- 33
2020-08-08 12:00:00 30.2 4 Sudeste 11 Sur 0 -- -- 39
2020-08-08 11:00:00 28.4 4 Sudoeste 14 Sudoeste 0 -- -- 46
2020-08-08 10:00:00 25.3 6 Oeste 21 Oeste 0 -- -- 66
2020-08-08 09:00:00 23.7 10 Oeste 26 Este 0 -- -- 71
2020-08-08 08:00:00 24.2 8 Este 22 Este 0 -- -- 71
2020-08-08 07:00:00 23.4 2 Norte 14 Oeste 0 -- -- 73
2020-08-08 06:00:00 23.5 3 Oeste 12 Este 0 -- -- 77
2020-08-08 05:00:00 23 3 Noroeste 17 Sudoeste 0 -- -- 79
2020-08-08 04:00:00 23.1 9 Oeste 25 Oeste 0 -- -- 77
2020-08-08 03:00:00 23.7 10 Noroeste 27 Noroeste 0 -- -- 72
2020-08-08 02:00:00 24.1 2 Norte 8 Norte 0 -- -- 73
2020-08-08 01:00:00 23.8 0 Calma 10 Noroeste 0 -- -- 77
2020-08-08 00:00:00 23.9 7 Noroeste 17 Oeste 0 -- -- 75
2020-08-07 23:00:00 24.7 8 Noroeste 22 Oeste 0 -- -- 68
2020-08-07 22:00:00 26.3 11 Oeste 23 Oeste 0 -- -- 57
2020-08-07 21:00:00 28.1 10 Noroeste 21 Noroeste 0 -- -- 51
2020-08-07 20:00:00 30.4 11 Noroeste 21 Norte 0 -- -- 44
2020-08-07 19:00:00 32.1 10 Noroeste 31 Norte 0 -- -- 37
2020-08-07 18:00:00 33.4 12 Norte 25 Noroeste 0 -- -- 40
2020-08-07 17:00:00 34.3 5 Este 22 Sur 0 -- -- 31
2020-08-07 16:00:00 37.1 13 Sur 26 Sur 0 -- -- 14
2020-08-07 15:00:00 36.2 5 Sur 10 Sudoeste 0 -- -- 10
2020-08-07 14:00:00 35.2 3 Nordeste 10 Sudeste 0 -- -- 22
2020-08-07 13:00:00 32.5 5 Nordeste 12 Noroeste 0 -- -- 28
2020-08-07 12:00:00 30.6 5 Norte 14 Noroeste 0 -- -- 33
2020-08-07 11:00:00 28.6 5 Norte 13 Oeste 0 -- -- 38
2020-08-07 10:00:00 26.2 8 Sudoeste 17 Noroeste 0 -- -- 44
2020-08-07 09:00:00 24.4 3 Noroeste 8 Noroeste 0 -- -- 46
2020-08-07 08:00:00 23.9 0 Calma 8 Norte 0 -- -- 46
2020-08-07 07:00:00 24.8 5 Noroeste 9 Noroeste 0 -- -- 37
2020-08-07 06:00:00 25.2 4 Noroeste 9 Sur 0 -- -- 33
2020-08-07 05:00:00 27 6 Sur 18 Nordeste 0 -- -- 31
2020-08-07 04:00:00 28.4 6 Este 39 Sudeste 0 -- -- 36
2020-08-07 03:00:00 28.5 20 Sudeste 53 Sudeste 0 -- -- 33
2020-08-07 02:00:00 29.8 28 Sudeste 42 Sudeste 0 -- -- 27
2020-08-07 01:00:00 29.8 18 Sudeste 42 Sudeste 0 -- -- 28
2020-08-07 00:00:00 30 21 Sudeste 34 Sudeste 0 -- -- 28
2020-08-06 23:00:00 29.4 19 Sudeste 46 Sudeste 0 -- -- 33
2020-08-06 22:00:00 29.3 23 Este 44 Sur 0 -- -- 32
2020-08-06 21:00:00 29.8 21 Sudeste 42 Este 0 -- -- 31
2020-08-06 20:00:00 30.5 23 Sudeste 57 Sudeste 0 -- -- 29
2020-08-06 19:00:00 31.7 36 Sudeste 54 Sudeste 0 -- -- 25
2020-08-06 18:00:00 32.4 36 Sudeste 53 Sudeste 0 -- -- 24
2020-08-06 17:00:00 32.8 12 Este 39 Sudeste 0 -- -- 28
2020-08-06 16:00:00 33 14 Este 47 Sudeste 0 -- -- 32
2020-08-06 15:00:00 32.8 24 Sudeste 40 Este 0 -- -- 29
2020-08-06 14:00:00 32.5 22 Este 53 Sudeste 0 -- -- 32
2020-08-06 13:00:00 32.1 23 Este 51 Sudeste 0 -- -- 33
2020-08-06 12:00:00 31.5 23 Sudeste 44 Sudeste 0 -- -- 31
2020-08-06 11:00:00 30.7 30 Sudeste 53 Este 0 -- -- 37
2020-08-06 10:00:00 29.9 24 Sudeste 41 Sudeste 0 -- -- 33
2020-08-06 09:00:00 29.5 30 Sudeste 44 Sudeste 0 -- -- 30
2020-08-06 08:00:00 29 31 Sudeste 45 Sudeste 0 -- -- 30
2020-08-06 07:00:00 28.4 20 Sudeste 32 Sudeste 0 -- -- 37
2020-08-06 06:00:00 27.2 9 Este 23 Sudeste 0 -- -- 37
2020-08-06 05:00:00 27.8 8 Este 23 Sudeste 0 -- -- 34
2020-08-06 04:00:00 27.7 9 Este 26 Este 0 -- -- 35
2020-08-06 03:00:00 27.8 8 Este 22 Este 0 -- -- 34
2020-08-06 02:00:00 28 9 Este 25 Sudeste 0 -- -- 36
2020-08-06 01:00:00 28.4 10 Este 32 Sudeste 0 -- -- 36
2020-08-06 00:00:00 28.7 11 Este 25 Sudeste 0 -- -- 39
2020-08-05 23:00:00 28.4 9 Este 23 Sudeste 0 -- -- 41
2020-08-05 22:00:00 29.4 12 Este 31 Sudeste 0 -- -- 43
2020-08-05 21:00:00 31.2 9 Este 30 Sudeste 0 -- -- 35
2020-08-05 20:00:00 32.4 12 Este 38 Sudeste 0 -- -- 35
2020-08-05 19:00:00 33.9 21 Sudeste 41 Sudeste 0 -- -- 29
2020-08-05 18:00:00 34.8 25 Sudeste 42 Sudeste 0 -- -- 27
2020-08-05 17:00:00 34.2 32 Sudeste 41 Sudeste 0 -- -- 32
2020-08-05 16:00:00 35.1 24 Sudeste 37 Sudeste 0 -- -- 31
2020-08-05 15:00:00 33.5 24 Sudeste 34 Sudeste 0 -- -- 36
2020-08-05 14:00:00 32.1 11 Este 35 Sudeste 0 -- -- 38
2020-08-05 13:00:00 31.3 10 Este 25 Sudeste 0 -- -- 40
2020-08-05 12:00:00 30.3 8 Este 21 Este 0 -- -- 47
2020-08-05 11:00:00 29.1 16 Sudeste 38 Sudeste 0 -- -- 47
2020-08-05 10:00:00 27.9 26 Sudeste 42 Sudeste 0 -- -- 52
2020-08-05 09:00:00 26.5 11 Este 28 Sudeste 0 -- -- 60
2020-08-05 08:00:00 25.5 12 Sudeste 22 Sudeste 0 -- -- 63
2020-08-05 07:00:00 24.8 4 Este 15 Este 0 -- -- 66
2020-08-05 06:00:00 24.7 4 Este 14 Este 0 -- -- 64
2020-08-05 05:00:00 25.6 4 Este 18 Sudeste 0 -- -- 59
2020-08-05 04:00:00 26 5 Este 15 Este 0 -- -- 58
2020-08-05 03:00:00 26.3 6 Este 13 Nordeste 0 -- -- 60
2020-08-05 02:00:00 26 3 Este 8 Nordeste 0 -- -- 64
2020-08-05 01:00:00 26.3 3 Norte 5 Este 0 -- -- 64
2020-08-05 00:00:00 27 0 Calma 5 Sudoeste 0 -- -- 60
2020-08-04 23:00:00 28 4 Norte 17 Oeste 0 -- -- 54
2020-08-04 22:00:00 29.3 5 Oeste 21 Sudoeste 0 -- -- 49
2020-08-04 21:00:00 30.8 4 Norte 13 Norte 0 -- -- 47
2020-08-04 20:00:00 32 4 Noroeste 18 Norte 0 -- -- 43
2020-08-04 19:00:00 33.1 6 Noroeste 23 Oeste 0 -- -- 42
2020-08-04 18:00:00 33.7 7 Sudoeste 23 Oeste 0 -- -- 40
2020-08-04 17:00:00 33.5 10 Oeste 25 Oeste 0 -- -- 41
2020-08-04 16:00:00 33.9 8 Sudoeste 28 Norte 0 -- -- 40
2020-08-04 15:00:00 35 4 Sur 11 Sudeste 0 -- -- 36
2020-08-04 14:00:00 34.1 5 Este 10 Nordeste 0 -- -- 35
2020-08-04 13:00:00 32.9 4 Nordeste 11 Norte 0 -- -- 44
2020-08-04 12:00:00 30.3 5 Sur 21 Sudoeste 0 -- -- 50
2020-08-04 11:00:00 27.4 8 Sudoeste 22 Sur 0 -- -- 62
2020-08-04 10:00:00 25.3 10 Sur 21 Sur 0 -- -- 71
2020-08-04 09:00:00 23.2 9 Sur 19 Sur 0 -- -- 81
2020-08-04 08:00:00 22.1 9 Sur 26 Sur 0 -- -- 86
2020-08-04 07:00:00 22.1 14 Sur 26 Sur 0 -- -- 85
2020-08-04 06:00:00 22.4 13 Sur 29 Sur 0 -- -- 83
2020-08-04 05:00:00 22.4 14 Sur 26 Sur 0 -- -- 84
2020-08-04 04:00:00 22.2 10 Sur 21 Sur 0 -- -- 84
2020-08-04 03:00:00 22.3 9 Sur 19 Sur 0 -- -- 75
2020-08-04 02:00:00 22.6 6 Sur 11 Sur 0 -- -- 58
2020-08-04 01:00:00 23.1 4 Sur 8 Sudoeste 0 -- -- 52
2020-08-04 00:00:00 23.7 3 Sudoeste 12 Sur 0 -- -- 49
2020-08-03 23:00:00 24.5 4 Sudoeste 10 Sudoeste 0 -- -- 49
2020-08-03 22:00:00 26 4 Sudoeste 15 Sudoeste 0 -- -- 41
2020-08-03 21:00:00 27.7 8 Sudoeste 24 Sudoeste 0 -- -- 34
2020-08-03 20:00:00 29.5 11 Sudoeste 25 Sudoeste 0 -- -- 31
2020-08-03 19:00:00 31 13 Sudoeste 26 Sudoeste 0 -- -- 29
2020-08-03 18:00:00 31.9 8 Sudoeste 24 Sudoeste 0 -- -- 27
2020-08-03 17:00:00 31.9 11 Sudoeste 24 Sudoeste 0 -- -- 28
2020-08-03 16:00:00 31.9 10 Oeste 30 Sudoeste 0 -- -- 30
2020-08-03 15:00:00 32.2 10 Sudoeste 26 Sudoeste 0 -- -- 25
2020-08-03 14:00:00 30.6 5 Nordeste 17 Sudoeste 0 -- -- 29
2020-08-03 13:00:00 29.2 7 Sudoeste 18 Sur 0 -- -- 32
2020-08-03 12:00:00 27.2 8 Sudoeste 24 Sur 0 -- -- 38
2020-08-03 11:00:00 25.2 8 Sudoeste 19 Sudoeste 0 -- -- 49
2020-08-03 10:00:00 24.2 7 Sur 18 Sudoeste 0 -- -- 58
2020-08-03 09:00:00 21.9 8 Sudoeste 15 Sur 0 -- -- 78
2020-08-03 08:00:00 21.1 4 Oeste 18 Sur 0 -- -- 89
2020-08-03 07:00:00 21.1 10 Sur 19 Sur 0 -- -- 91
2020-08-03 06:00:00 21 4 Oeste 24 Sur 0 -- -- 87
2020-08-03 05:00:00 21.4 9 Sur 19 Sur 0 -- -- 82
2020-08-03 04:00:00 22.2 5 Sudoeste 12 Sur 0 -- -- 63
2020-08-03 03:00:00 22.9 3 Sudoeste 9 Sur 0 -- -- 59
2020-08-03 02:00:00 23 3 Sudoeste 6 Sudoeste 0 -- -- 49
2020-08-03 01:00:00 22.7 0 Calma 6 Sudoeste 0 -- -- 45
2020-08-03 00:00:00 22.8 3 Sudoeste 8 Sur 0 -- -- 49
2020-08-02 23:00:00 24 3 Sudoeste 14 Oeste 0 -- -- 57
2020-08-02 22:00:00 25.5 9 Oeste 19 Oeste 0 -- -- 53
2020-08-02 21:00:00 27.6 12 Oeste 24 Oeste 0 -- -- 36
2020-08-02 20:00:00 31.3 12 Oeste 26 Oeste 0 -- -- 29
2020-08-02 19:00:00 33.7 13 Sudoeste 29 Sudoeste 0 -- -- 22
2020-08-02 18:00:00 34.9 13 Sudoeste 28 Sudoeste 0 -- -- 14
2020-08-02 17:00:00 36.5 9 Sudoeste 25 Oeste 0 -- -- 22
2020-08-02 16:00:00 38.4 11 Sudoeste 25 Sudoeste 0 -- -- 19
2020-08-02 15:00:00 37.4 6 Oeste 17 Sur 0 -- -- 19
2020-08-02 14:00:00 35.6 8 Norte 14 Norte 0 -- -- 24
2020-08-02 13:00:00 33.8 8 Noroeste 15 Noroeste 0 -- -- 30
2020-08-02 12:00:00 31.2 6 Noroeste 14 Noroeste 0 -- -- 40
2020-08-02 11:00:00 28.9 4 Sudeste 8 Norte 0 -- -- 48
2020-08-02 10:00:00 26.3 3 Sudeste 6 Sudeste 0 -- -- 51
2020-08-02 09:00:00 24.3 3 Sudeste 9 Sudeste 0 -- -- 57
2020-08-02 08:00:00 23.1 3 Sur 6 Sur 0 -- -- 63
2020-08-02 07:00:00 22.9 0 Calma 5 Sur 0 -- -- 62
2020-08-02 06:00:00 23.6 0 Calma 4 Norte 0 -- -- 59
2020-08-02 05:00:00 24 0 Calma 4 Norte 0 -- -- 62
2020-08-02 04:00:00 24.7 0 Calma 4 Norte 0 -- -- 58
2020-08-02 03:00:00 25 0 Calma 3 Norte 0 -- -- 49
2020-08-02 02:00:00 25.3 0 Calma 4 Norte 0 -- -- 48
2020-08-02 01:00:00 26 0 Calma 5 Nordeste 0 -- -- 49
2020-08-02 00:00:00 26.9 3 Norte 7 Oeste 0 -- -- 45
2020-08-01 23:00:00 28.3 2 Oeste 15 Oeste 0 -- -- 36
2020-08-01 22:00:00 30.7 6 Oeste 14 Sur 0 -- -- 31
2020-08-01 21:00:00 33.6 7 Sudoeste 23 Oeste 0 -- -- 28
2020-08-01 20:00:00 35.9 10 Sudoeste 27 Sudoeste 0 -- -- 30
2020-08-01 19:00:00 40.5 9 Norte 21 Noroeste 0 -- -- 9
2020-08-01 18:00:00 41.6 5 Norte 17 Norte 0 -- -- 7
2020-08-01 17:00:00 41.2 6 Norte 19 Oeste 0 -- -- 7
2020-08-01 16:00:00 40.4 7 Norte 17 Noroeste 0 -- -- 13
2020-08-01 15:00:00 39.6 10 Noroeste 23 Noroeste 0 -- -- 13
2020-08-01 14:00:00 38 8 Noroeste 19 Noroeste 0 -- -- 21
2020-08-01 13:00:00 35.9 8 Noroeste 18 Noroeste 0 -- -- 29
2020-08-01 12:00:00 32.4 9 Noroeste 17 Noroeste 0 -- -- 51
2020-08-01 11:00:00 29.4 8 Noroeste 19 Noroeste 0 -- -- 64
2020-08-01 10:00:00 28 3 Norte 7 Este 0 -- -- 71
2020-08-01 09:00:00 25.2 3 Nordeste 10 Nordeste 0 -- -- 83
2020-08-01 08:00:00 24.1 3 Este 6 Sudeste 0 -- -- 89
2020-08-01 07:00:00 24.3 0 Calma 5 Este 0 -- -- 90
2020-08-01 06:00:00 24.5 2 Noroeste 6 Sur 0 -- -- 90
2020-08-01 05:00:00 24.7 2 Este 9 Noroeste 0 -- -- 88
2020-08-01 04:00:00 24.8 3 Norte 11 Noroeste 0 -- -- 87
2020-08-01 03:00:00 25 8 Noroeste 18 Noroeste 0 -- -- 86
2020-08-01 02:00:00 25.7 9 Oeste 22 Noroeste 0 -- -- 80
2020-08-01 01:00:00 26.7 10 Oeste 22 Oeste 0 -- -- 73
2020-08-01 00:00:00 27.5 7 Oeste 13 Oeste 0 -- -- 69
2020-07-31 23:00:00 28.2 0 Calma 17 Oeste 0 -- -- 67
2020-07-31 22:00:00 29.1 11 Oeste 24 Sudoeste 0 -- -- 62
2020-07-31 21:00:00 31.5 10 Oeste 21 Oeste 0 -- -- 53
2020-07-31 20:00:00 35 12 Oeste 23 Sudoeste 0 -- -- 43
2020-07-31 19:00:00 37.6 6 Oeste 17 Norte 0 -- -- 33
2020-07-31 18:00:00 37.6 6 Norte 16 Noroeste 0 -- -- 32
2020-07-31 17:00:00 36.9 4 Este 21 Sur 0 -- -- 32
2020-07-31 16:00:00 36.7 15 Sur 24 Sur 0 -- -- 32
2020-07-31 15:00:00 35.1 8 Norte 16 Noroeste 0 -- -- 38
2020-07-31 14:00:00 33.3 6 Norte 17 Norte 0 -- -- 45
2020-07-31 13:00:00 31.8 10 Noroeste 19 Noroeste 0 -- -- 51
2020-07-31 12:00:00 29.7 4 Sudeste 7 Sudeste 0 -- -- 60
2020-07-31 11:00:00 27.3 4 Sudeste 7 Sudeste 0 -- -- 70
2020-07-31 10:00:00 25.1 3 Sudeste 7 Sur 0 -- -- 81
2020-07-31 09:00:00 23.3 2 Nordeste 6 Nordeste 0 -- -- 90
2020-07-31 08:00:00 22.1 3 Sur 5 Sudeste 0 -- -- 94
2020-07-31 07:00:00 22.2 0 Calma 6 Nordeste 0 -- -- 93
2020-07-31 06:00:00 22.5 0 Calma 6 Sudeste 0 -- -- 93
2020-07-31 05:00:00 22.7 0 Calma 4 Norte 0 -- -- 92
2020-07-31 04:00:00 23 3 Norte 7 Norte 0 -- -- 90
2020-07-31 03:00:00 23.4 3 Noroeste 10 Norte 0 -- -- 89
2020-07-31 02:00:00 23.8 4 Noroeste 11 Noroeste 0 -- -- 87
2020-07-31 01:00:00 24.1 4 Noroeste 11 Oeste 0 -- -- 85
2020-07-31 00:00:00 24.5 6 Oeste 13 Oeste 0 -- -- 83
2020-07-30 23:00:00 25.4 4 Oeste 14 Sudoeste 0 -- -- 77
2020-07-30 22:00:00 26.5 5 Sudoeste 20 Noroeste 0 -- -- 70
2020-07-30 21:00:00 28.1 11 Noroeste 27 Noroeste 0 -- -- 63
2020-07-30 20:00:00 31 13 Noroeste 27 Noroeste 0 -- -- 52
2020-07-30 19:00:00 35.4 8 Noroeste 21 Noroeste 0 -- -- 39
2020-07-30 18:00:00 35.9 5 Este 15 Este 0 -- -- 36
2020-07-30 17:00:00 35.9 5 Este 20 Este 0 -- -- 37
2020-07-30 16:00:00 36.7 9 Sudeste 14 Sudeste 0 -- -- 28
2020-07-30 15:00:00 36.2 6 Sudeste 9 Sudeste 0 -- -- 32
2020-07-30 14:00:00 36 4 Nordeste 13 Norte 0 -- -- 33
2020-07-30 13:00:00 34.1 6 Nordeste 13 Nordeste 0 -- -- 37
2020-07-30 12:00:00 31.9 6 Norte 13 Norte 0 -- -- 41
2020-07-30 11:00:00 28.8 6 Noroeste 17 Norte 0 -- -- 52
2020-07-30 10:00:00 26.8 5 Noroeste 12 Noroeste 0 -- -- 59
2020-07-30 09:00:00 24.2 0 Calma 7 Noroeste 0 -- -- 67
2020-07-30 08:00:00 23 0 Calma 6 Norte 0 -- -- 70
2020-07-30 07:00:00 23.7 2 Oeste 10 Noroeste 0 -- -- 65
2020-07-30 06:00:00 24.9 5 Norte 10 Nordeste 0 -- -- 62
2020-07-30 05:00:00 26 3 Sudoeste 24 Sudeste 0 -- -- 56
2020-07-30 04:00:00 27.2 4 Este 27 Este 0 -- -- 52
2020-07-30 03:00:00 27.9 8 Este 28 Sudeste 0 -- -- 56
2020-07-30 02:00:00 26 5 Sur 11 Sudeste 0 -- -- 61
2020-07-30 01:00:00 26.4 0 Calma 26 Sudeste 0 -- -- 59
2020-07-30 00:00:00 27.3 6 Nordeste 19 Nordeste 0 -- -- 61
2020-07-29 23:00:00 27.6 6 Noroeste 17 Norte 0 -- -- 54
2020-07-29 22:00:00 29 6 Norte 22 Norte 0 -- -- 50
2020-07-29 21:00:00 30.5 9 Noroeste 24 Noroeste 0 -- -- 48
2020-07-29 20:00:00 32.3 9 Noroeste 21 Noroeste 0 -- -- 41
2020-07-29 19:00:00 35.1 9 Oeste 24 Noroeste 0 -- -- 30
2020-07-29 18:00:00 35.5 8 Noroeste 21 Oeste 0 -- -- 34
2020-07-29 17:00:00 35 9 Oeste 26 Oeste 0 -- -- 35
2020-07-29 16:00:00 35.6 11 Oeste 23 Oeste 0 -- -- 34
2020-07-29 15:00:00 36.2 5 Nordeste 12 Noroeste 0 -- -- 26
2020-07-29 14:00:00 34.3 9 Norte 19 Noroeste 0 -- -- 35
2020-07-29 13:00:00 32.2 10 Norte 21 Norte 0 -- -- 41
2020-07-29 12:00:00 30.4 8 Oeste 16 Noroeste 0 -- -- 45
2020-07-29 11:00:00 28.1 6 Noroeste 14 Noroeste 0 -- -- 53
2020-07-29 10:00:00 24.7 6 Noroeste 10 Noroeste 0 -- -- 67
2020-07-29 09:00:00 22.9 0 Calma 8 Sudoeste 0 -- -- 74
2020-07-29 08:00:00 21.7 3 Sudoeste 11 Oeste 0 -- -- 79
2020-07-29 07:00:00 21.6 2 Oeste 8 Noroeste 0 -- -- 78
2020-07-29 06:00:00 22 0 Calma 6 Este 0 -- -- 78
2020-07-29 05:00:00 22.3 0 Calma 4 Sur 0 -- -- 79
2020-07-29 04:00:00 22.8 0 Calma 4 Nordeste 0 -- -- 76
2020-07-29 03:00:00 23.3 3 Norte 8 Oeste 0 -- -- 69
2020-07-29 02:00:00 24 3 Oeste 6 Sudoeste 0 -- -- 67
2020-07-29 01:00:00 24.4 3 Sudeste 9 Noroeste 0 -- -- 69
2020-07-29 00:00:00 24.9 4 Noroeste 12 Oeste 0 -- -- 66
2020-07-28 23:00:00 26.2 4 Oeste 18 Oeste 0 -- -- 60
2020-07-28 22:00:00 28.1 9 Oeste 18 Oeste 0 -- -- 50
2020-07-28 21:00:00 31 6 Sudoeste 18 Sudoeste 0 -- -- 39
2020-07-28 20:00:00 33.5 10 Sudoeste 24 Oeste 0 -- -- 31
2020-07-28 19:00:00 34.4 11 Sudoeste 23 Sudoeste 0 -- -- 32
2020-07-28 18:00:00 34.3 12 Sudoeste 25 Sudoeste 0 -- -- 36
2020-07-28 17:00:00 35.2 8 Oeste 23 Oeste 0 -- -- 36
2020-07-28 16:00:00 35.6 5 Oeste 21 Oeste 0 -- -- 33
2020-07-28 15:00:00 35.5 7 Sur 16 Noroeste 0 -- -- 31
2020-07-28 14:00:00 34.1 5 Norte 18 Norte 0 -- -- 35
2020-07-28 13:00:00 32.1 8 Norte 15 Sudoeste 0 -- -- 39
2020-07-28 12:00:00 29.9 4 Sur 14 Noroeste 0 -- -- 45
2020-07-28 11:00:00 27.7 4 Noroeste 12 Noroeste 0 -- -- 52
2020-07-28 10:00:00 25.3 3 Sudeste 7 Norte 0 -- -- 63
2020-07-28 09:00:00 22.8 3 Sudeste 6 Sudeste 0 -- -- 71
2020-07-28 08:00:00 21.5 2 Este 8 Sudeste 0 -- -- 79
2020-07-28 07:00:00 21.5 3 Sudeste 9 Sudeste 0 -- -- 80
2020-07-28 06:00:00 21.9 0 Calma 4 Norte 0 -- -- 81
2020-07-28 05:00:00 22.2 0 Calma 4 Sur 0 -- -- 80
2020-07-28 04:00:00 22.4 0 Calma 5 Norte 0 -- -- 78
2020-07-28 03:00:00 22.8 0 Calma 4 Norte 0 -- -- 79
2020-07-28 02:00:00 23.8 0 Calma 4 Sudoeste 0 -- -- 71
2020-07-28 01:00:00 24.7 2 Noroeste 6 Sudeste 0 -- -- 65
2020-07-28 00:00:00 25.4 3 Sudeste 8 Oeste 0 -- -- 60
2020-07-27 23:00:00 26 0 Calma 12 Sudoeste 0 -- -- 57
2020-07-27 22:00:00 26.9 9 Oeste 15 Oeste 0 -- -- 49
2020-07-27 21:00:00 28.4 7 Noroeste 20 Noroeste 0 -- -- 44
2020-07-27 20:00:00 31.7 8 Noroeste 28 Oeste 0 -- -- 41
2020-07-27 19:00:00 33 10 Sudoeste 28 Sudoeste 0 -- -- 36
2020-07-27 18:00:00 35.7 13 Sudoeste 29 Sudoeste 0 -- -- 35
2020-07-27 17:00:00 35.2 12 Oeste 28 Sudoeste 0 -- -- 37
2020-07-27 16:00:00 34.8 10 Oeste 30 Sudoeste 0 -- -- 39
2020-07-27 15:00:00 36.2 10 Oeste 41 Sudoeste 0 -- -- 36
2020-07-27 14:00:00 36.8 13 Sudoeste 32 Sur 0 -- -- 29
2020-07-27 13:00:00 35.9 15 Sur 28 Sur 0 -- -- 27
2020-07-27 12:00:00 34.8 16 Sur 27 Sur 0 -- -- 28
2020-07-27 09:00:00 26.2 6 Sur 16 Sudoeste 0 -- -- 55
2020-07-27 08:00:00 25.2 5 Sudoeste 14 Sudoeste 0 -- -- 56
2020-07-27 07:00:00 25.7 0 Calma 15 Oeste 0 -- -- 50
2020-07-27 06:00:00 26.6 4 Sudoeste 16 Sudoeste 0 -- -- 45
2020-07-27 05:00:00 28 10 Oeste 17 Oeste 0 -- -- 32
2020-07-27 04:00:00 29.1 2 Noroeste 30 Sudeste 0 -- -- 27
2020-07-27 03:00:00 30.6 10 Este 26 Este 0 -- -- 32
2020-07-27 02:00:00 26.7 5 Sur 16 Sudoeste 0 -- -- 41
2020-07-27 01:00:00 26.3 7 Sudoeste 17 Sudeste 0 -- -- 50
2020-07-27 00:00:00 27.2 9 Sur 28 Sur 0 -- -- 50
2020-07-26 23:00:00 28.6 5 Sur 14 Noroeste 0 -- -- 44
2020-07-26 22:00:00 29.5 11 Noroeste 24 Oeste 0 -- -- 43
2020-07-26 21:00:00 31.3 12 Oeste 35 Sudeste 0 -- -- 40
2020-07-26 20:00:00 35.6 17 Sudeste 32 Sudeste 0 -- -- 24
2020-07-26 19:00:00 35.5 21 Sudeste 39 Sudeste 0 -- -- 28
2020-07-26 18:00:00 36.5 23 Sudeste 37 Sudeste 0 -- -- 29
2020-07-26 17:00:00 38.4 11 Norte 21 Norte 0 -- -- 23
2020-07-26 16:00:00 40.9 13 Sudeste 28 Sur 0 -- -- 19
2020-07-26 15:00:00 40.4 4 Nordeste 8 Este 0 -- -- 15
2020-07-26 14:00:00 39.1 4 Este 10 Nordeste 0 -- -- 15
2020-07-26 13:00:00 36.6 4 Nordeste 9 Noroeste 0 -- -- 21
2020-07-26 12:00:00 34.4 4 Norte 9 Noroeste 0 -- -- 27
2020-07-26 11:00:00 31.4 3 Sudeste 6 Sudeste 0 -- -- 29
2020-07-26 10:00:00 27.9 3 Sudeste 6 Sudeste 0 -- -- 39
2020-07-26 09:00:00 24.8 2 Sudeste 8 Sudeste 0 -- -- 51
2020-07-26 08:00:00 23.2 0 Calma 6 Sudeste 0 -- -- 59
2020-07-26 07:00:00 22.7 0 Calma 7 Sudeste 0 -- -- 67
2020-07-26 06:00:00 23.1 3 Noroeste 5 Norte 0 -- -- 70
2020-07-26 05:00:00 23.9 0 Calma 6 Sur 0 -- -- 69
2020-07-26 04:00:00 24.7 2 Noroeste 8 Noroeste 0 -- -- 58
2020-07-26 03:00:00 25.6 0 Calma 9 Noroeste 0 -- -- 61
2020-07-26 02:00:00 26.4 4 Noroeste 8 Norte 0 -- -- 54
2020-07-26 01:00:00 27 0 Calma 8 Norte 0 -- -- 53
2020-07-26 00:00:00 28.1 2 Noroeste 7 Noroeste 0 -- -- 50
2020-07-25 23:00:00 29 4 Oeste 14 Oeste 0 -- -- 48
2020-07-25 22:00:00 30.4 7 Oeste 19 Sudoeste 0 -- -- 44
2020-07-25 21:00:00 32.8 9 Oeste 21 Sudoeste 0 -- -- 36
2020-07-25 20:00:00 35.2 7 Noroeste 23 Noroeste 0 -- -- 32
2020-07-25 19:00:00 36.2 11 Noroeste 27 Sudoeste 0 -- -- 30
2020-07-25 18:00:00 38 10 Sudoeste 27 Sudoeste 0 -- -- 25
2020-07-25 17:00:00 37.8 4 Este 15 Sudeste 0 -- -- 20
2020-07-25 16:00:00 37 5 Este 12 Este 0 -- -- 25
2020-07-25 15:00:00 36.5 5 Este 18 Sudeste 0 -- -- 24
2020-07-25 14:00:00 37.1 6 Norte 11 Noroeste 0 -- -- 24
2020-07-25 13:00:00 34.8 6 Norte 15 Noroeste 0 -- -- 27
2020-07-25 12:00:00 31.9 7 Norte 14 Noroeste 0 -- -- 36
2020-07-25 11:00:00 29.5 6 Noroeste 11 Norte 0 -- -- 41
2020-07-25 10:00:00 26.8 2 Sudeste 5 Este 0 -- -- 45
2020-07-25 09:00:00 23.9 2 Este 5 Este 0 -- -- 56
2020-07-25 08:00:00 22.3 0 Calma 4 Norte 0 -- -- 63
2020-07-25 07:00:00 22.3 0 Calma 5 Sur 0 -- -- 59
2020-07-25 06:00:00 22.8 0 Calma 4 Este 0 -- -- 58
2020-07-25 05:00:00 23.1 0 Calma 5 Sudeste 0 -- -- 59
2020-07-25 04:00:00 23.6 0 Calma 4 Norte 0 -- -- 60
2020-07-25 03:00:00 24.4 0 Calma 3 Sudeste 0 -- -- 65
2020-07-25 02:00:00 25.1 0 Calma 3 Norte 0 -- -- 56
2020-07-25 01:00:00 25.8 0 Calma 4 Sudeste 0 -- -- 59
2020-07-25 00:00:00 26.8 0 Calma 5 Norte 0 -- -- 47
2020-07-24 23:00:00 28.3 0 Calma 7 Oeste 0 -- -- 42
2020-07-24 22:00:00 30 6 Oeste 16 Oeste 0 -- -- 37
2020-07-24 21:00:00 32.2 7 Oeste 16 Sudoeste 0 -- -- 32
2020-07-24 20:00:00 34.6 10 Oeste 20 Oeste 0 -- -- 26
2020-07-24 19:00:00 35.4 9 Sudoeste 24 Oeste 0 -- -- 26
2020-07-24 18:00:00 35.5 13 Sudoeste 21 Sudoeste 0 -- -- 25
2020-07-24 17:00:00 35.7 7 Oeste 28 Oeste 0 -- -- 31
2020-07-24 16:00:00 36 10 Oeste 23 Sudoeste 0 -- -- 34
2020-07-24 15:00:00 36.7 8 Oeste 26 Oeste 0 -- -- 34
2020-07-24 14:00:00 37.1 6 Oeste 19 Sudoeste 0 -- -- 26
2020-07-24 13:00:00 35.6 5 Nordeste 15 Noroeste 0 -- -- 29
2020-07-24 12:00:00 32.4 8 Noroeste 15 Noroeste 0 -- -- 38
2020-07-24 11:00:00 29.7 4 Este 8 Norte 0 -- -- 44
2020-07-24 10:00:00 25.8 3 Sudeste 5 Sudeste 0 -- -- 50
2020-07-24 09:00:00 23.5 2 Sudeste 5 Sudeste 0 -- -- 59
2020-07-24 08:00:00 22.3 0 Calma 3 Sur 0 -- -- 66
2020-07-24 07:00:00 22.5 0 Calma 5 Norte 0 -- -- 66
2020-07-24 06:00:00 23 0 Calma 3 Sudoeste 0 -- -- 60
2020-07-24 05:00:00 23.6 0 Calma 6 Sudeste 0 -- -- 59
2020-07-24 04:00:00 24.1 0 Calma 3 Sudoeste 0 -- -- 53
2020-07-24 03:00:00 24.6 0 Calma 5 Sudeste 0 -- -- 51
2020-07-24 02:00:00 25 0 Calma 5 Nordeste 0 -- -- 54
2020-07-24 01:00:00 24.9 0 Calma 2 Oeste 0 -- -- 59
2020-07-24 00:00:00 25.8 0 Calma 4 Norte 0 -- -- 54
2020-07-23 23:00:00 26.8 0 Calma 15 Sudoeste 0 -- -- 48
2020-07-23 22:00:00 28.2 8 Oeste 19 Oeste 0 -- -- 43
2020-07-23 21:00:00 30.8 10 Sudoeste 22 Oeste 0 -- -- 39
2020-07-23 20:00:00 33.6 10 Sudoeste 26 Sudoeste 0 -- -- 32
2020-07-23 19:00:00 35.1 11 Sudoeste 31 Sudoeste 0 -- -- 31
2020-07-23 18:00:00 35.8 10 Sudoeste 27 Sudoeste 0 -- -- 28
2020-07-23 17:00:00 35.7 12 Sudoeste 27 Sudoeste 0 -- -- 32
2020-07-23 16:00:00 36.4 13 Sudoeste 24 Sudoeste 0 -- -- 31
2020-07-23 15:00:00 36.7 8 Norte 20 Nordeste 0 -- -- 28
2020-07-23 14:00:00 35.2 8 Noroeste 17 Noroeste 0 -- -- 28
2020-07-23 13:00:00 32.8 8 Norte 15 Norte 0 -- -- 39
2020-07-23 12:00:00 31.6 7 Sudoeste 16 Sudoeste 0 -- -- 39
2020-07-23 11:00:00 28.7 3 Oeste 12 Norte 0 -- -- 49
2020-07-23 10:00:00 26.3 3 Este 6 Nordeste 0 -- -- 56
2020-07-23 09:00:00 23.3 3 Este 5 Este 0 -- -- 71
2020-07-23 08:00:00 21.9 0 Calma 4 Este 0 -- -- 81
2020-07-23 07:00:00 22 0 Calma 4 Nordeste 0 -- -- 78
2020-07-23 06:00:00 22.1 0 Calma 3 Este 0 -- -- 76
2020-07-23 05:00:00 22.1 0 Calma 5 Nordeste 0 -- -- 76
2020-07-23 04:00:00 22.4 0 Calma 6 Este 0 -- -- 76
2020-07-23 03:00:00 22.9 2 Este 6 Este 0 -- -- 79
2020-07-23 02:00:00 22.8 0 Calma 5 Norte 0 -- -- 77
2020-07-23 01:00:00 23.2 2 Norte 6 Norte 0 -- -- 73
2020-07-23 00:00:00 23.5 2 Oeste 7 Sur 0 -- -- 67
2020-07-22 23:00:00 24.5 2 Sur 18 Oeste 0 -- -- 62
2020-07-22 22:00:00 25.6 11 Oeste 22 Oeste 0 -- -- 57
2020-07-22 21:00:00 27.4 11 Oeste 28 Oeste 0 -- -- 51
2020-07-22 20:00:00 31.2 11 Oeste 23 Oeste 0 -- -- 41
2020-07-22 19:00:00 31.9 13 Sudoeste 26 Oeste 0 -- -- 39
2020-07-22 18:00:00 32.8 8 Sudoeste 19 Sudoeste 0 -- -- 37
2020-07-22 17:00:00 33.1 9 Norte 24 Norte 0 -- -- 34
2020-07-22 16:00:00 32.6 6 Noroeste 18 Norte 0 -- -- 30
2020-07-22 15:00:00 31.2 8 Norte 18 Norte 0 -- -- 36
2020-07-22 14:00:00 30.3 8 Norte 17 Norte 0 -- -- 41
2020-07-22 13:00:00 28.9 5 Nordeste 15 Oeste 0 -- -- 46
2020-07-22 12:00:00 28.2 5 Nordeste 10 Este 0 -- -- 50
2020-07-22 11:00:00 26.3 4 Nordeste 8 Este 0 -- -- 61
2020-07-22 10:00:00 24.6 4 Sudeste 8 Noroeste 0 -- -- 72
2020-07-22 09:00:00 22.8 0 Calma 7 Noroeste 0 -- -- 82
2020-07-22 08:00:00 22.3 4 Noroeste 10 Noroeste 0 -- -- 85
2020-07-22 07:00:00 22.5 0 Calma 8 Nordeste 0 -- -- 84
2020-07-22 06:00:00 22.5 0 Calma 7 Nordeste 0 -- -- 84
2020-07-22 05:00:00 22.2 2 Norte 13 Noroeste 0 -- -- 86
2020-07-22 04:00:00 22.3 8 Noroeste 17 Oeste 0 -- -- 85
2020-07-22 03:00:00 22.3 8 Noroeste 15 Noroeste 0 -- -- 85
2020-07-22 02:00:00 23 3 Este 7 Sudeste 0 -- -- 84
2020-07-22 01:00:00 22.6 2 Sudeste 16 Oeste 0 -- -- 83
2020-07-22 00:00:00 22.7 11 Noroeste 18 Noroeste 0 -- -- 82
2020-07-21 23:00:00 23.3 11 Noroeste 23 Noroeste 0 -- -- 78
2020-07-21 22:00:00 25 8 Oeste 18 Oeste 0 -- -- 68
2020-07-21 21:00:00 25.9 9 Oeste 20 Oeste 0 -- -- 63
2020-07-21 20:00:00 27.7 9 Noroeste 36 Oeste 0 -- -- 56
2020-07-21 19:00:00 32.5 15 Sudoeste 33 Sur 0 -- -- 37
2020-07-21 18:00:00 33.8 18 Sur 34 Sur 0 -- -- 33
2020-07-21 17:00:00 33.9 14 Sur 25 Sudeste 0 -- -- 33
2020-07-21 16:00:00 33.7 19 Sudeste 33 Sudeste 0 -- -- 32
2020-07-21 15:00:00 31.7 25 Sudeste 41 Sudeste 0 -- -- 34
2020-07-21 14:00:00 33.2 21 Sudeste 33 Sur 0 -- -- 28
2020-07-21 13:00:00 33 19 Sudeste 40 Sudeste 0 -- -- 28
2020-07-21 12:00:00 31.8 22 Sudeste 32 Sudeste 0 -- -- 32
2020-07-21 11:00:00 31 15 Sudeste 27 Sudeste 0 -- -- 33
2020-07-21 10:00:00 28.6 12 Sur 26 Sur 0 -- -- 38
2020-07-21 09:00:00 26.5 4 Oeste 24 Sudeste 0 -- -- 37
2020-07-21 08:00:00 25.2 4 Sudoeste 17 Sur 0.2 -- -- 41
2020-07-21 07:00:00 28.2 6 Sudoeste 52 Sudeste 0 -- -- 33
2020-07-21 06:00:00 28.6 37 Sudeste 54 Sudeste 0 -- -- 30
2020-07-21 05:00:00 28.3 19 Este 38 Sudeste 0 -- -- 37
2020-07-21 04:00:00 28.3 9 Norte 32 Oeste 0 -- -- 30
2020-07-21 03:00:00 31.2 12 Norte 66 Sur 0 -- -- 25
2020-07-21 02:00:00 29.9 32 Sudeste 65 Sudeste 0 -- -- 31
2020-07-21 01:00:00 29.4 40 Sudeste 66 Sudeste 0 -- -- 30
2020-07-21 00:00:00 29.6 41 Sudeste 63 Sudeste 0 -- -- 30
2020-07-20 23:00:00 29.6 28 Este 59 Sudeste 0 -- -- 29
2020-07-20 22:00:00 29.8 12 Este 39 Sudeste 0 -- -- 35
2020-07-20 21:00:00 30.3 13 Este 31 Este 0 -- -- 33
2020-07-20 20:00:00 31.4 10 Este 37 Sudeste 0 -- -- 30
2020-07-20 19:00:00 32.3 14 Sudeste 46 Sudeste 0 -- -- 30
2020-07-20 18:00:00 33.1 16 Sudeste 33 Sudeste 0 -- -- 31
2020-07-20 17:00:00 33.5 22 Sudeste 37 Este 0 -- -- 33
2020-07-20 16:00:00 33.6 6 Este 18 Este 0 -- -- 35
2020-07-20 15:00:00 34 6 Este 21 Nordeste 0 -- -- 35
2020-07-20 14:00:00 34.1 7 Este 17 Este 0 -- -- 33
2020-07-20 13:00:00 34.2 8 Este 21 Nordeste 0 -- -- 32
2020-07-20 12:00:00 33.2 9 Este 22 Sudeste 0 -- -- 33
2020-07-20 11:00:00 31.4 6 Este 20 Este 0 -- -- 38
2020-07-20 10:00:00 29.8 6 Este 16 Nordeste 0 -- -- 41
2020-07-20 09:00:00 27.4 7 Este 19 Este 0 -- -- 46
2020-07-20 08:00:00 23.9 3 Este 10 Este 0 -- -- 60
2020-07-20 07:00:00 24.4 6 Norte 14 Norte 0 -- -- 54
2020-07-20 06:00:00 23.4 4 Este 14 Este 0 -- -- 66
2020-07-20 05:00:00 24.1 0 Calma 11 Noroeste 0 -- -- 62
2020-07-20 04:00:00 24.7 8 Noroeste 15 Noroeste 0 -- -- 57
2020-07-20 03:00:00 25 3 Norte 8 Noroeste 0 -- -- 56
2020-07-20 02:00:00 25.3 0 Calma 10 Norte 0 -- -- 58
2020-07-20 01:00:00 25.9 0 Calma 6 Nordeste 0 -- -- 56
2020-07-20 00:00:00 26.6 2 Norte 10 Sudoeste 0 -- -- 54
2020-07-19 23:00:00 27.4 2 Sudoeste 14 Oeste 0 -- -- 49
2020-07-19 22:00:00 28.9 6 Oeste 17 Oeste 0 -- -- 44
2020-07-19 21:00:00 30.6 9 Oeste 19 Sudoeste 0 -- -- 42
2020-07-19 20:00:00 34.1 9 Oeste 21 Sudoeste 0 -- -- 35
2020-07-19 19:00:00 35.9 7 Oeste 23 Oeste 0 -- -- 33
2020-07-19 18:00:00 37.8 9 Sudoeste 22 Sudoeste 0 -- -- 24
2020-07-19 17:00:00 37.5 10 Sur 20 Sudoeste 0 -- -- 25
2020-07-19 16:00:00 36.9 7 Sudoeste 21 Sur 0 -- -- 28
2020-07-19 15:00:00 35.4 9 Norte 21 Norte 0 -- -- 31
2020-07-19 14:00:00 34.2 4 Sudeste 14 Norte 0 -- -- 32
2020-07-19 13:00:00 32.4 6 Norte 15 Norte 0 -- -- 35
2020-07-19 12:00:00 30 8 Norte 17 Norte 0 -- -- 41
2020-07-19 11:00:00 29.2 6 Norte 14 Norte 0 -- -- 44
2020-07-19 10:00:00 25.5 5 Sur 8 Sudeste 0 -- -- 60
2020-07-19 09:00:00 23.1 4 Sudeste 13 Oeste 0 -- -- 73
2020-07-19 08:00:00 21.5 10 Noroeste 21 Noroeste 0 -- -- 75
2020-07-19 07:00:00 22.7 2 Noroeste 12 Nordeste 0 -- -- 67
2020-07-19 06:00:00 21.9 3 Nordeste 11 Sudeste 0 -- -- 80
2020-07-19 05:00:00 22.4 3 Sudoeste 10 Oeste 0 -- -- 76
2020-07-19 04:00:00 22.6 3 Noroeste 8 Oeste 0 -- -- 73
2020-07-19 03:00:00 23.1 2 Oeste 14 Oeste 0 -- -- 71
2020-07-19 02:00:00 23.8 6 Noroeste 12 Oeste 0 -- -- 69
2020-07-19 01:00:00 24.4 2 Oeste 10 Oeste 0 -- -- 66
2020-07-19 00:00:00 24.8 3 Sudoeste 15 Oeste 0 -- -- 65
2020-07-18 23:00:00 25.2 8 Noroeste 24 Oeste 0 -- -- 63
2020-07-18 22:00:00 28.2 13 Oeste 26 Sudoeste 0 -- -- 47
2020-07-18 21:00:00 32.3 3 Sudoeste 13 Sudoeste 0 -- -- 35
2020-07-18 20:00:00 34.6 6 Sudoeste 16 Sur 0 -- -- 30
2020-07-18 19:00:00 33.9 6 Sudeste 13 Este 0 -- -- 33
2020-07-18 18:00:00 34.3 9 Sudeste 14 Sudeste 0 -- -- 39
2020-07-18 17:00:00 33.8 9 Sudeste 17 Sudeste 0 -- -- 33
2020-07-18 16:00:00 33 11 Sudeste 21 Sudeste 0 -- -- 34
2020-07-18 15:00:00 32.8 11 Sudeste 17 Sudeste 0 -- -- 34
2020-07-18 14:00:00 32.5 7 Sudeste 14 Sudeste 0 -- -- 37
2020-07-18 13:00:00 31.1 6 Este 17 Sudeste 0 -- -- 37
2020-07-18 12:00:00 29.6 4 Este 26 Este 0 -- -- 41
2020-07-18 11:00:00 28.6 7 Este 22 Este 0 -- -- 41
2020-07-18 10:00:00 27.9 8 Sudeste 16 Este 0 -- -- 41
2020-07-18 09:00:00 25.6 2 Este 9 Este 0 -- -- 46
2020-07-18 08:00:00 23.7 0 Calma 9 Este 0 -- -- 53
2020-07-18 07:00:00 23 0 Calma 5 Nordeste 0 -- -- 50
2020-07-18 06:00:00 22.3 0 Calma 4 Este 0 -- -- 66
2020-07-18 05:00:00 22.8 0 Calma 4 Norte 0 -- -- 58
2020-07-18 04:00:00 23.1 0 Calma 4 Sudeste 0 -- -- 53
2020-07-18 03:00:00 24.2 0 Calma 9 Sudeste 0 -- -- 45
2020-07-18 02:00:00 25.8 5 Este 9 Sudeste 0 -- -- 48
2020-07-18 01:00:00 26.2 0 Calma 13 Este 0 -- -- 41
2020-07-18 00:00:00 26.6 3 Norte 9 Nordeste 0 -- -- 38
2020-07-17 23:00:00 27.3 2 Nordeste 10 Nordeste 0 -- -- 44
2020-07-17 22:00:00 28.5 0 Calma 10 Este 0 -- -- 44
2020-07-17 21:00:00 30.2 3 Nordeste 17 Este 0 -- -- 40
2020-07-17 20:00:00 31 8 Este 20 Sudeste 0 -- -- 38
2020-07-17 19:00:00 31.6 5 Este 15 Este 0 -- -- 36
2020-07-17 18:00:00 32 7 Este 20 Sudeste 0 -- -- 37
2020-07-17 17:00:00 32.6 6 Este 16 Nordeste 0 -- -- 35
2020-07-17 16:00:00 32 6 Este 17 Sudeste 0 -- -- 37
2020-07-17 15:00:00 31.8 6 Este 16 Sudeste 0 -- -- 38
2020-07-17 14:00:00 31 6 Este 18 Nordeste 0 -- -- 39
2020-07-17 13:00:00 30.3 7 Este 19 Nordeste 0 -- -- 39
2020-07-17 12:00:00 29.8 7 Este 21 Sudeste 0 -- -- 39
2020-07-17 11:00:00 29 9 Este 23 Sudeste 0 -- -- 38
2020-07-17 10:00:00 27.9 9 Este 22 Nordeste 0 -- -- 36
2020-07-17 09:00:00 27.1 10 Este 23 Este 0 -- -- 36
2020-07-17 08:00:00 26.4 8 Este 26 Este 0 -- -- 34
2020-07-17 07:00:00 26.2 8 Este 21 Este 0 -- -- 35
2020-07-17 06:00:00 26.8 10 Este 25 Este 0 -- -- 32
2020-07-17 05:00:00 27.5 9 Este 26 Sudeste 0 -- -- 31
2020-07-17 04:00:00 27.5 9 Este 24 Sudeste 0 -- -- 31
2020-07-17 03:00:00 27.2 8 Este 21 Este 0 -- -- 32
2020-07-17 02:00:00 27 9 Este 20 Sudeste 0 -- -- 33
2020-07-17 01:00:00 27 9 Este 30 Sudeste 0 -- -- 33
2020-07-17 00:00:00 26.6 11 Este 40 Sudeste 0 -- -- 39
2020-07-16 23:00:00 26.7 9 Este 24 Nordeste 0 -- -- 42
2020-07-16 22:00:00 27.3 11 Este 25 Este 0 -- -- 37
2020-07-16 21:00:00 28.9 5 Nordeste 23 Nordeste 0 -- -- 32
2020-07-16 20:00:00 30.4 9 Este 30 Sudeste 0 -- -- 34
2020-07-16 19:00:00 31 9 Este 30 Sudeste 0 -- -- 35
2020-07-16 18:00:00 31.1 11 Este 36 Sudeste 0 -- -- 35
2020-07-16 17:00:00 32 14 Este 36 Sudeste 0 -- -- 31
2020-07-16 16:00:00 31.1 13 Este 41 Sudeste 0 -- -- 34
2020-07-16 15:00:00 31.1 9 Este 35 Este 0 -- -- 37
2020-07-16 14:00:00 30.8 11 Este 32 Sudeste 0 -- -- 36
2020-07-16 13:00:00 30.4 12 Este 32 Este 0 -- -- 34
2020-07-16 12:00:00 30 13 Este 44 Sudeste 0 -- -- 37
2020-07-16 11:00:00 29.8 25 Sudeste 50 Sudeste 0 -- -- 33
2020-07-16 10:00:00 28.6 26 Sudeste 42 Sudeste 0 -- -- 36
2020-07-16 09:00:00 27.4 20 Sudeste 42 Sudeste 0 -- -- 38
2020-07-16 08:00:00 26.8 17 Este 40 Este 0 -- -- 37
2020-07-16 07:00:00 26.5 11 Este 27 Nordeste 0 -- -- 39
2020-07-16 06:00:00 26.6 11 Este 28 Sudeste 0 -- -- 35
2020-07-16 05:00:00 26.6 13 Este 32 Este 0 -- -- 34
2020-07-16 04:00:00 26.5 13 Este 35 Este 0 -- -- 37
2020-07-16 03:00:00 26.8 13 Este 27 Sudeste 0 -- -- 34
2020-07-16 02:00:00 27.1 14 Este 40 Sudeste 0 -- -- 36
2020-07-16 01:00:00 27.1 16 Este 34 Nordeste 0 -- -- 36
2020-07-16 00:00:00 27 12 Este 29 Este 0 -- -- 32
2020-07-15 23:00:00 26.2 10 Este 42 Sudeste 0 -- -- 42
2020-07-15 22:00:00 26.8 13 Este 35 Sudeste 0 -- -- 45
2020-07-15 21:00:00 28 27 Sudeste 37 Sudeste 0 -- -- 45
2020-07-15 20:00:00 29.7 26 Sudeste 42 Sudeste 0 -- -- 38
2020-07-15 19:00:00 30.5 26 Sudeste 43 Sudeste 0 -- -- 38
2020-07-15 18:00:00 30.7 32 Sudeste 46 Sudeste 0 -- -- 42
2020-07-15 17:00:00 31.3 28 Sudeste 40 Sudeste 0 -- -- 39
2020-07-15 16:00:00 30.2 18 Este 44 Sudeste 0 -- -- 42
2020-07-15 15:00:00 30.1 26 Sudeste 45 Sudeste 0 -- -- 43
2020-07-15 14:00:00 29.9 11 Este 41 Sudeste 0 -- -- 41
2020-07-15 13:00:00 29.6 20 Este 39 Sudeste 0 -- -- 39
2020-07-15 12:00:00 29.6 15 Este 37 Sudeste 0 -- -- 43
2020-07-15 11:00:00 28.9 11 Este 33 Sudeste 0 -- -- 42
2020-07-15 10:00:00 28 9 Este 30 Sudeste 0 -- -- 43
2020-07-15 09:00:00 26.5 19 Este 35 Este 0 -- -- 45
2020-07-15 08:00:00 25.6 12 Este 30 Este 0 -- -- 46
2020-07-15 07:00:00 26.2 13 Este 39 Sudeste 0 -- -- 41
2020-07-15 06:00:00 26.2 17 Este 40 Sudeste 0 -- -- 41
2020-07-15 05:00:00 25.4 13 Este 31 Sudeste 0 -- -- 47
2020-07-15 04:00:00 26.1 9 Este 25 Sudeste 0 -- -- 43
2020-07-15 03:00:00 26.9 10 Este 23 Este 0 -- -- 38
2020-07-15 02:00:00 26.9 7 Este 24 Sudeste 0 -- -- 37
2020-07-15 01:00:00 26.8 9 Este 19 Sudeste 0 -- -- 41
2020-07-15 00:00:00 26.7 5 Este 18 Este 0 -- -- 48